São Filipe Airport

GVSF · São Filipe, Cabo Verde

História da METAR GVSF · Aeródromo de São Filipe

Abaixo você vê METARs dos últimos dias. Selecione um ano para navegar pelos METARs mais antigos, a partir do ano 2007.

17 de julho de 2024

Hora Código Clima Temp. Visibilidade Tecto Vento METAR/SPECI
21:00
M
25 °C 10 km+ 2.300 ft 060° 060° 6 kt METAR GVNP 172200Z 06006KT 9999 BKN023 25/21 Q1015 NOSIG
20:00
M
25 °C 10 km+ 2.300 ft 060° 060° 8 kt METAR GVNP 172100Z 06008KT 9999 FEW018 BKN023 25/21 Q1014 NOSIG
19:00
M
26 °C 10 km+ 2.200 ft 060° 060° 7 kt METAR GVNP 172000Z 06007KT 9999 FEW016 BKN022 26/21 Q1013 NOSIG
18:00
M
26 °C 10 km+ 2.200 ft 100° 100° 6 kt METAR GVNP 171900Z 10006KT 9999 FEW016 BKN022 26/21 Q1013 NOSIG
17:00
M
27 °C 10 km+ 2.200 ft 070° 070° 5 kt METAR GVNP 171800Z 07005KT 9999 FEW016 BKN022 27/21 Q1012 NOSIG
16:00
M
27 °C 10 km+ 2.200 ft 080° 080° 9 kt METAR GVNP 171700Z 08009KT 9999 SCT016 BKN022 27/21 Q1012 NOSIG
15:00
M
28 °C 10 km+ 1.600 ft 060° 060° 6 kt METAR GVNP 171600Z 06006KT 040V110 9999 BKN016 28/21 Q1012 NOSIG
14:00
M
28 °C 10 km+ 2.200 ft 060° 060° 13 kt METAR GVNP 171500Z 06013KT 9999 SCT016 BKN022 28/21 Q1013 NOSIG
13:00
M
27 °C 10 km+ 1.800 ft 050° 050° 11 kt METAR GVNP 171400Z 05011KT 9999 BKN018 27/21 Q1013 NOSIG
12:00
M
27 °C 10 km+ 1.800 ft 060° 060° 12 kt METAR GVNP 171300Z 06012KT 9999 BKN018 27/22 Q1014 NOSIG
11:00
M
27 °C 10 km+ 1.800 ft 070° 070° 11 kt METAR GVNP 171200Z 07011KT 9999 BKN018 27/22 Q1014 NOSIG
10:00
M
27 °C 10 km+ 2.000 ft 130° 130° 7 kt METAR GVNP 171100Z 13007KT 9999 BKN020 27/22 Q1014 NOSIG
09:00
M
28 °C 10 km+ 2.500 ft 050° 050° 3 kt METAR GVNP 171000Z 05003KT 9999 FEW017 BKN025 28/22 Q1014 NOSIG
08:00
M
26 °C 10 km+ 2.500 ft 040° 040° 4 kt METAR GVNP 170900Z 04004KT 9999 FEW014 BKN025 26/22 Q1014 NOSIG
07:00
V
25 °C 10 km+ 3.600 ft 040° 040° 3 kt METAR GVNP 170800Z 04003KT 9999 FEW012 BKN036 25/22 Q1015 NOSIG
06:00
V
25 °C 10 km+ 3.600 ft 030° 030° 2 kt METAR GVNP 170700Z 03002KT 9999 BKN036 25/22 Q1014 NOSIG
05:00
M
24 °C 10 km+ 3.000 ft 010° 010° 4 kt METAR GVNP 170600Z 01004KT 9999 SCT020 BKN030 24/22 Q1014 NOSIG
04:00
V
24 °C 10 km+ - 040° 040° 4 kt METAR GVNP 170500Z 04004KT 9999 FEW020 SCT030 24/22 Q1014 NOSIG
03:00
V
25 °C 10 km+ - 060° 060° 2 kt METAR GVNP 170400Z 06002KT 9999 FEW020 SCT030 25/22 Q1014 NOSIG
02:00
V
25 °C 10 km+ 3.300 ft 060° 060° 3 kt METAR GVNP 170300Z 06003KT 9999 BKN033 25/22 Q1014 NOSIG
01:00
M
25 °C 10 km+ 2.400 ft 110° 110° 3 kt METAR GVNP 170200Z 11003KT 9999 SCT016 BKN024 25/22 Q1015 NOSIG
00:00
M
25 °C 10 km+ 2.400 ft 060° 060° 4 kt METAR GVNP 170100Z 06004KT 9999 SCT016 BKN024 25/22 Q1015 NOSIG

16 de julho de 2024

Hora Código Clima Temp. Visibilidade Tecto Vento METAR/SPECI
23:00
M
26 °C 10 km+ 2.400 ft 100° 100° 3 kt METAR GVNP 170000Z 10003KT 9999 SCT016 BKN024 26/22 Q1015 NOSIG
22:00
M
26 °C 10 km+ 2.400 ft 120° 120° 3 kt METAR GVNP 162300Z 12003KTKT 9999 FEW016 BKN024 26/22 Q1015 NOSIG
21:00
M
26 °C 10 km+ 2.400 ft 050° 050° 4 kt METAR GVNP 162200Z 05004KT 9999 FEW016 BKN024 26/22 Q1015 NOSIG
20:00
M
26 °C 10 km+ 2.300 ft Var Var 3 kt METAR GVNP 162100Z VRB03KT 9999 FEW016 BKN023 26/22 Q1014 NOSIG
19:00
M
26 °C 10 km+ 2.300 ft 060° 060° 3 kt METAR GVNP 162000Z 06003KT 9999 FEW017 BKN023 26/22 Q1014 NOSIG
18:00
M
26 °C 10 km+ 2.300 ft 050° 050° 7 kt METAR GVNP 161900Z 05007KT 9999 FEW017 BKN023 26/22 Q1013 NOSIG
17:00
M
27 °C 10 km+ 2.300 ft 050° 050° 9 kt METAR GVNP 161800Z 05009KT 9999 FEW017 BKN023 27/22 Q1013 NOSIG
16:00
M
27 °C 10 km+ 2.300 ft 070° 070° 11 kt METAR GVNP 161700Z 07011KT 9999 SCT017 BKN023 27/22 Q1013 NOSIG
15:00
M
28 °C 10 km+ 2.300 ft 050° 050° 10 kt METAR GVNP 161600Z 05010KT 020V080 9999 FEW016 BKN023 28/22 Q1013 NOSIG
14:00
M
28 °C 10 km+ 2.300 ft 080° 080° 11 kt METAR GVNP 161500Z 08011KT 9999 BKN023 28/22 Q1014 NOSIG
13:00
V
29 °C 10 km+ - 070° 070° 12 kt METAR GVNP 161400Z 07012KT 9999 SCT023 29/22 Q1014 NOSIG
12:00
M
28 °C 10 km+ 2.000 ft 060° 060° 6 kt METAR GVNP 161300Z 06006KT 030V100 9999 BKN020 28/22 Q1014 NOSIG
11:00
V
28 °C 10 km+ 3.500 ft 090° 090° 7 kt METAR GVNP 161200Z 09007KT 040V140 9999 SCT019 BKN035 28/22 Q1015 NOSIG
10:00
V
29 °C 10 km+ - 200° 200° 7 kt METAR GVNP 161100Z 20007KT 9999 FEW024 29/22 Q1015 NOSIG
09:00
V
28 °C 10 km+ - 220° 220° 6 kt METAR GVNP 161000Z 22006KT 9999 FEW023 28/21 Q1015 NOSIG
08:00
V
26 °C 10 km+ - 350° 350° 5 kt METAR GVNP 160900Z 35005KT 9999 FEW035 26/21 Q1015 NOSIG
07:00
V
25 °C 10 km+ 10.000 ft 010° 010° 5 kt METAR GVNP 160800Z 01005KT 9999 SCT025 BKN100 25/21 Q1015 NOSIG
06:00
M
25 °C 10 km+ 2.500 ft 040° 040° 7 kt METAR GVNP 160700Z 04007KT 9999 BKN025 25/22 Q1015 NOSIG
05:00
M
24 °C 10 km+ 2.500 ft 030° 030° 3 kt METAR GVNP 160600Z 03003KT 9999 BKN025 24/22 Q1014 NOSIG
04:00
V
24 °C 10 km+ - 020° 020° 2 kt METAR GVNP 160500Z 02002KT 9999 FEW020 24/22 Q1014 NOSIG
03:00
M
25 °C 10 km+ 2.000 ft 360° 360° 3 kt METAR GVNP 160400Z 36003KT 9999 BKN020 25/22 Q1014 NOSIG
02:00
M
24 °C 10 km+ 2.000 ft 020° 020° 2 kt METAR GVNP 160300Z 02002KT 9999 BKN020 24/22 Q1015 NOSIG
01:00
V
25 °C 10 km+ - 030° 030° 3 kt METAR GVNP 160200Z 03003KT 9999 FEW020 25/22 Q1015 NOSIG
00:00
V
25 °C 10 km+ - 010° 010° 4 kt METAR GVNP 160100Z 01004KT 9999 FEW020 25/22 Q1016 NOSIG

15 de julho de 2024

Hora Código Clima Temp. Visibilidade Tecto Vento METAR/SPECI
23:00
V
26 °C 10 km+ - 010° 010° 5 kt METAR GVNP 160000Z 01005KT 9999 FEW020 26/22 Q1016 NOSIG
22:00
V
25 °C 10 km+ - 040° 040° 5 kt METAR GVNP 152300Z 04005KT 9999 FEW023 SCT130 25/22 Q1016 NOSIG
21:00
V
25 °C 10 km+ - 040° 040° 7 kt METAR GVNP 152200Z 04007KT 9999 FEW023 25/22 Q1016 NOSIG
20:00
V
26 °C 10 km+ - 060° 060° 7 kt METAR GVNP 152100Z 06007KT 9999 FEW023 26/22 Q1015 NOSIG
19:00
V
26 °C 10 km+ - 080° 080° 4 kt METAR GVNP 152000Z 08004KT 9999 FEW023 26/22 Q1015 NOSIG
18:00
M
26 °C 10 km+ 2.300 ft 090° 090° 4 kt METAR GVNP 151900Z 09004KT 9999 BKN023 26/22 Q1014 NOSIG
17:00
M
26 °C 10 km+ 2.300 ft 070° 070° 6 kt METAR GVNP 151800Z 07006KT 9999 BKN023 26/22 Q1014 NOSIG
16:00
M
28 °C 10 km+ 2.700 ft 160° 160° 7 kt METAR GVNP 151700Z 16007KT 130V190 9999 SCT020 BKN027 28/22 Q1014 NOSIG
15:00
M
27 °C 10 km+ 2.700 ft 130° 130° 6 kt METAR GVNP 151600Z 13006KT 9999 BKN027 SCT031 27/22 Q1014 NOSIG
14:00
V
28 °C 10 km+ - 120° 120° 7 kt METAR GVNP 151500Z 12007KT 9999 SCT031 28/22 Q1015 NOSIG
13:00
V
28 °C 10 km+ - 110° 110° 9 kt METAR GVNP 151400Z 11009KT 9999 FEW018 28/21 Q1015 NOSIG
12:00
V
28 °C 10 km+ - 090° 090° 9 kt METAR GVNP 151300Z 09009KT 9999 FEW018 28/20 Q1015 NOSIG
11:00
V
28 °C 10 km+ - 090° 090° 9 kt METAR GVNP 151200Z 09009KT 9999 FEW018 28/21 Q1015 NOSIG
10:00
V
27 °C 10 km+ - 100° 100° 12 kt METAR GVNP 151100Z 10012KT 9999 SCT018 27/22 Q1016 NOSIG
09:00
V
27 °C 10 km+ - 090° 090° 8 kt METAR GVNP 151000Z 09008KT 9999 SCT018 27/22 Q1015 NOSIG
08:00
V
26 °C 10 km+ - 050° 050° 5 kt METAR GVNP 150900Z 05005KT 9999 SCT018 26/22 Q1015 NOSIG
07:00
M
25 °C 10 km+ 2.000 ft 050° 050° 6 kt METAR GVNP 150800Z 05006KT 9999 FEW014 BKN020 25/22 Q1015 NOSIG
06:00
M
25 °C 10 km+ 2.000 ft 040° 040° 3 kt METAR GVNP 150700Z 04003KT 9999 BKN020 25/22 Q1014 NOSIG
05:00
M
25 °C 10 km+ 2.000 ft 040° 040° 4 kt METAR GVNP 150600Z 04004KT 9999 BKN020 25/22 Q1014 NOSIG
Relatar uma mudança